EDT,Max TemperatureF,Mean TemperatureF,Min TemperatureF,Max Dew PointF,MeanDew PointF,Min DewpointF,Max Humidity, Mean Humidity, Min Humidity, Max Sea Level PressureIn, Mean Sea Level PressureIn, Min Sea Level PressureIn, Max VisibilityMiles, Mean VisibilityMiles, Min VisibilityMiles, Max Wind SpeedMPH, Mean Wind SpeedMPH, Max Gust SpeedMPH,PrecipitationIn, CloudCover, Events, WindDirDegrees
2013-7-1,80,76,73,77,75,71,100,93,85,29.98,29.91,29.83,10,7,1,28,14,36,2.19,6,Rain-Thunderstorm,201
2013-7-2,88,80,73,76,75,72,100,92,59,30.08,30.00,29.95,10,8,1,32,19,44,0.82,5,Rain-Thunderstorm,168
2013-7-3,89,82,75,77,75,73,97,90,67,30.11,30.06,30.03,10,7,0,31,13,40,1.40,4,Fog-Rain,170
2013-7-4,90,82,75,76,74,72,97,83,61,30.14,30.10,30.05,10,8,0,20,12,26,0.39,2,Rain,133
2013-7-5,89,82,75,78,75,72,100,89,67,30.13,30.09,30.05,10,8,0,38,14,47,0.54,3,Fog-Rain-Thunderstorm,141
2013-7-6,91,83,75,78,76,73,97,81,55,30.10,30.07,30.01,10,10,10,17,11,,0.00,2,Thunderstorm,133
2013-7-7,91,84,79,77,76,74,88,77,61,30.12,30.07,30.02,10,9,0,20,10,38,0.31,2,Fog-Rain-Thunderstorm,126
2013-7-8,93,86,80,77,75,72,90,75,52,30.15,30.11,30.06,10,10,10,14,9,,0.00,1,,94
2013-7-9,93,86,80,76,73,69,82,68,48,30.17,30.11,30.04,10,10,10,18,6,,0.00,1,Thunderstorm,119
2013-7-10,90,83,77,75,74,71,90,75,55,30.09,30.03,29.95,10,9,2,18,7,31,0.22,3,Rain-Thunderstorm,95
2013-7-11,87,81,78,77,75,73,94,83,67,30.02,29.98,29.92,10,9,1,17,6,,0.38,4,Rain-Thunderstorm,201
2013-7-12,88,83,78,76,75,71,90,79,65,29.95,29.93,29.88,10,8,2,15,5,,0.30,5,Rain-Thunderstorm,205
2013-7-13,87,82,77,76,74,69,90,80,67,29.97,29.94,29.90,10,9,2,24,8,30,0.13,2,Rain-Thunderstorm,167
2013-7-14,86,80,75,78,75,72,94,85,69,30.08,30.01,29.95,10,10,10,18,12,,0.00,3,Thunderstorm,140
2013-7-15,91,84,77,76,74,72,90,76,55,30.10,30.06,30.00,10,10,10,15,11,,0.00,3,,121
2013-7-16,91,84,77,76,75,73,94,83,59,30.16,30.12,30.07,10,9,1,37,15,45,0.30,2,Rain,111
2013-7-17,88,82,75,77,75,73,100,87,65,30.15,30.11,30.06,10,9,1,18,13,30,0.40,3,Rain,92
2013-7-18,87,81,75,75,74,73,97,88,67,30.11,30.07,30.04,10,7,0,25,11,,0.94,4,Fog-Rain-Thunderstorm,143
2013-7-19,88,81,75,76,74,72,100,87,67,30.12,30.08,30.04,10,9,2,20,9,25,0.12,3,Rain,171
2013-7-20,89,83,77,78,75,73,90,83,63,30.10,30.06,30.01,10,10,10,25,8,39,0.00,2,,154
2013-7-21,89,83,78,79,77,74,94,80,67,30.12,30.07,30.04,10,10,10,14,8,21,0.00,2,,214
2013-7-22,88,84,81,79,77,75,94,79,67,30.13,30.09,30.06,10,10,10,14,7,20,0.00,1,,240
2013-7-23,88,84,82,77,75,73,82,74,63,30.09,30.03,29.97,10,10,10,15,7,20,0.00,3,,270
2013-7-24,88,84,82,78,76,74,85,74,65,30.00,29.95,29.91,10,10,10,17,10,24,0.06,4,Rain,275
2013-7-25,87,84,82,79,77,74,90,76,65,30.00,29.95,29.88,10,9,3,17,12,24,0.13,4,Rain-Thunderstorm,279
2013-7-26,91,85,79,79,76,74,91,80,57,30.02,29.98,29.95,10,9,2,25,8,34,0.20,3,Rain-Thunderstorm,321
2013-7-27,93,86,82,79,75,70,85,70,48,29.99,29.96,29.91,10,10,10,14,4,,0.00,1,,316
2013-7-28,90,86,81,77,74,70,82,69,59,30.05,30.00,29.94,10,10,10,20,4,26,0.00,2,Thunderstorm,188
2013-7-29,95,88,82,77,74,68,82,69,43,30.14,30.08,30.02,10,10,4,20,8,29,0.01,1,Rain,152
2013-7-30,96,88,82,78,75,72,82,69,47,30.17,30.12,30.06,10,10,7,24,5,32,0.03,1,Rain,115
2013-7-31,95,88,82,79,76,72,88,73,51,30.12,30.06,30.00,10,10,10,21,7,,0.00,1,,79